createdAt,value
2023-05-17T00:01:58.399Z,5.50
2023-05-17T00:05:05.380Z,5.45
2023-05-17T00:08:11.414Z,5.20
2023-05-17T00:11:17.613Z,5.78
2023-05-17T00:14:23.614Z,5.33
2023-05-17T00:17:31.162Z,6.05
2023-05-17T00:20:37.462Z,5.50
2023-05-17T00:23:44.756Z,5.28
2023-05-17T00:26:51.919Z,5.20
2023-05-17T00:29:59.834Z,5.15
2023-05-17T00:33:08.457Z,4.75
2023-05-17T00:36:14.698Z,4.53
2023-05-17T00:39:15.444Z,5.33
2023-05-17T00:42:21.422Z,4.62
2023-05-17T00:45:27.817Z,4.10
2023-05-17T00:48:34.965Z,3.60
2023-05-17T00:51:42.361Z,4.15
2023-05-17T00:54:49.060Z,3.90
2023-05-17T00:57:54.692Z,3.62
2023-05-17T01:01:00.744Z,3.33
2023-05-17T01:04:08.134Z,3.72
2023-05-17T01:07:17.063Z,3.95
2023-05-17T01:10:25.692Z,3.60
2023-05-17T01:13:36.558Z,3.75
2023-05-17T01:16:46.805Z,3.95
2023-05-17T01:20:22.962Z,3.65
2023-05-17T01:23:36.094Z,3.60
2023-05-17T01:26:54.354Z,3.33
2023-05-17T01:29:59.267Z,3.60
2023-05-17T01:33:06.412Z,3.60
2023-05-17T01:36:12.745Z,3.70
2023-05-17T01:39:19.728Z,3.67
2023-05-17T01:42:29.660Z,4.35
2023-05-17T01:45:46.546Z,3.12
2023-05-17T01:48:55.803Z,3.35
2023-05-17T01:52:06.172Z,3.55
2023-05-17T01:55:39.484Z,3.37
2023-05-17T01:58:48.214Z,3.37
2023-05-17T02:01:53.808Z,3.10
2023-05-17T02:05:02.121Z,3.08
2023-05-17T02:08:10.799Z,3.45
2023-05-17T02:11:18.187Z,3.22
2023-05-17T02:14:24.572Z,3.22
2023-05-17T02:17:31.305Z,3.02
2023-05-17T02:20:39.049Z,2.67
2023-05-17T02:23:46.522Z,2.50
2023-05-17T02:26:52.802Z,2.67
2023-05-17T02:29:58.965Z,3.12
2023-05-17T02:33:06.328Z,2.80
2023-05-17T02:36:12.735Z,2.80
2023-05-17T02:39:18.689Z,2.80
2023-05-17T02:42:24.666Z,2.62
2023-05-17T02:45:31.934Z,2.83
2023-05-17T02:48:39.444Z,2.52
2023-05-17T02:51:45.706Z,3.00
2023-05-17T02:54:52.693Z,2.75
2023-05-17T02:57:58.944Z,2.67
2023-05-17T03:01:05.184Z,2.62
2023-05-17T03:04:11.345Z,2.70
2023-05-17T03:07:18.597Z,2.77
2023-05-17T03:10:24.301Z,3.00
2023-05-17T03:13:29.669Z,3.50
2023-05-17T03:16:36.445Z,2.98
2023-05-17T03:19:42.545Z,3.27
2023-05-17T03:22:49.694Z,3.08
2023-05-17T03:25:57.077Z,3.40
2023-05-17T03:29:07.557Z,3.15
2023-05-17T03:32:15.796Z,3.70
2023-05-17T03:35:21.764Z,3.45
2023-05-17T03:38:28.907Z,3.22
2023-05-17T03:41:34.343Z,3.70
2023-05-17T03:44:39.560Z,3.67
2023-05-17T03:47:47.124Z,3.80
2023-05-17T03:50:56.164Z,3.15
2023-05-17T03:54:01.979Z,3.67
2023-05-17T03:57:09.353Z,3.30
2023-05-17T04:00:16.765Z,3.12
2023-05-17T04:03:24.560Z,3.52
2023-05-17T04:06:30.778Z,3.60
2023-05-17T04:09:36.902Z,3.20
2023-05-17T04:12:44.383Z,3.02
2023-05-17T04:15:50.884Z,2.95
2023-05-17T04:19:00.171Z,3.60
2023-05-17T04:22:06.066Z,3.15
2023-05-17T04:25:13.129Z,3.17
2023-05-17T04:28:19.917Z,3.15
2023-05-17T04:31:30.067Z,2.65
2023-05-17T04:34:36.327Z,3.00
2023-05-17T04:37:44.762Z,2.80
2023-05-17T04:40:52.340Z,3.10
2023-05-17T04:43:59.027Z,2.65
2023-05-17T04:47:06.424Z,3.20
2023-05-17T04:50:13.165Z,2.83
2023-05-17T04:53:18.950Z,3.55
2023-05-17T04:56:24.393Z,2.90
2023-05-17T04:59:30.099Z,3.58
2023-05-17T05:02:39.216Z,3.62
2023-05-17T05:05:45.959Z,3.10
2023-05-17T05:08:52.819Z,2.60
2023-05-17T05:11:58.307Z,2.95
2023-05-17T05:15:05.704Z,2.70
2023-05-17T05:18:14.167Z,3.30
2023-05-17T05:21:21.472Z,2.70
2023-05-17T05:24:27.842Z,2.52
2023-05-17T05:27:35.778Z,2.90
2023-05-17T05:30:43.706Z,2.70
2023-05-17T05:33:50.568Z,2.47
2023-05-17T05:36:59.624Z,3.12
2023-05-17T05:40:11.184Z,2.42
2023-05-17T05:43:17.716Z,2.60
2023-05-17T05:46:24.716Z,2.80
2023-05-17T05:49:30.439Z,2.40
2023-05-17T05:52:36.317Z,4.15
2023-05-17T05:55:42.555Z,2.52
2023-05-17T05:58:49.820Z,7.47
2023-05-17T06:02:05.902Z,2.77
2023-05-17T06:05:12.244Z,2.20
2023-05-17T06:08:19.606Z,2.35
2023-05-17T06:11:24.854Z,2.30
2023-05-17T06:14:32.069Z,2.02
2023-05-17T06:17:40.334Z,2.05
2023-05-17T06:20:46.377Z,1.92
2023-05-17T06:23:52.530Z,1.77
2023-05-17T06:27:01.031Z,3.40
2023-05-17T06:30:07.652Z,1.55
2023-05-17T06:33:14.164Z,1.85
2023-05-17T06:36:20.845Z,1.60
2023-05-17T06:39:26.722Z,1.30
2023-05-17T06:42:33.144Z,2.20
2023-05-17T06:45:40.331Z,1.37
2023-05-17T06:48:48.006Z,1.77
2023-05-17T06:51:53.392Z,1.40
2023-05-17T06:54:59.409Z,1.95
2023-05-17T06:58:05.234Z,1.70
2023-05-17T07:01:12.905Z,1.60
2023-05-17T07:04:19.691Z,1.67
2023-05-17T07:07:25.276Z,1.30
2023-05-17T07:10:31.056Z,1.50
2023-05-17T07:13:38.125Z,1.87
2023-05-17T07:16:45.559Z,1.80
2023-05-17T07:19:50.833Z,1.85
2023-05-17T07:22:58.302Z,1.75
2023-05-17T07:26:07.122Z,1.52
2023-05-17T07:29:14.307Z,1.60
2023-05-17T07:32:20.564Z,1.90
2023-05-17T07:35:27.037Z,1.85
2023-05-17T07:38:32.864Z,2.67
2023-05-17T07:41:38.662Z,2.12
2023-05-17T07:44:44.142Z,1.77
2023-05-17T07:47:50.619Z,1.98
2023-05-17T07:50:56.946Z,1.85
2023-05-17T07:54:03.043Z,2.62
2023-05-17T07:57:09.398Z,1.82
2023-05-17T08:00:15.876Z,2.08
2023-05-17T08:03:21.449Z,1.85
2023-05-17T08:06:28.233Z,2.60
2023-05-17T08:09:34.093Z,3.02
2023-05-17T08:12:42.242Z,2.08
2023-05-17T08:15:51.575Z,3.15
2023-05-17T08:18:57.569Z,2.37
2023-05-17T08:22:06.601Z,2.55
2023-05-17T08:25:12.890Z,2.12
2023-05-17T08:28:19.782Z,2.50
2023-05-17T08:31:26.252Z,2.05
2023-05-17T08:34:33.367Z,1.57
2023-05-17T08:37:39.555Z,1.42
2023-05-17T08:40:46.607Z,1.62
2023-05-17T08:43:52.321Z,1.47
2023-05-17T08:47:00.245Z,1.30
2023-05-17T08:50:13.315Z,1.45
2023-05-17T08:56:24.126Z,1.20
2023-05-17T08:59:30.352Z,1.30
2023-05-17T09:02:37.507Z,1.80
2023-05-17T09:05:44.309Z,1.67
2023-05-17T09:08:52.076Z,1.60
2023-05-17T09:11:58.170Z,1.62
2023-05-17T09:15:04.710Z,1.45
2023-05-17T09:18:10.649Z,1.30
2023-05-17T09:21:18.935Z,1.67
2023-05-17T09:24:25.444Z,1.67
2023-05-17T09:27:33.204Z,1.50
2023-05-17T09:30:46.469Z,1.50
2023-05-17T09:34:02.335Z,1.67
2023-05-17T09:37:09.618Z,1.47
2023-05-17T09:40:19.032Z,1.30
2023-05-17T09:43:25.830Z,1.20
2023-05-17T09:46:34.822Z,1.90
2023-05-17T09:49:44.689Z,1.60
2023-05-17T09:52:55.044Z,1.63
2023-05-17T09:56:04.492Z,1.47
2023-05-17T09:59:10.530Z,1.37
2023-05-17T10:02:17.063Z,1.57
2023-05-17T10:05:26.648Z,1.40
2023-05-17T10:08:34.832Z,1.57
2023-05-17T10:11:44.604Z,1.70
2023-05-17T10:14:49.504Z,1.70
2023-05-17T10:17:55.406Z,1.80
2023-05-17T10:21:02.896Z,1.50
2023-05-17T10:24:09.505Z,2.00
2023-05-17T10:27:16.766Z,2.00
2023-05-17T10:30:25.300Z,1.70
2023-05-17T10:33:32.005Z,2.05
2023-05-17T10:36:38.947Z,1.72
2023-05-17T10:39:46.500Z,1.42
2023-05-17T10:42:52.667Z,1.47
2023-05-17T10:46:00.299Z,1.50
2023-05-17T10:49:10.109Z,1.75
2023-05-17T10:52:32.593Z,1.65
2023-05-17T10:55:40.765Z,1.80
2023-05-17T10:58:48.255Z,1.45
2023-05-17T11:02:21.873Z,1.62
2023-05-17T11:05:41.864Z,1.40
2023-05-17T11:08:49.517Z,1.42
2023-05-17T11:12:20.124Z,1.60
2023-05-17T11:15:30.234Z,1.52
2023-05-17T11:18:39.849Z,1.50
2023-05-17T11:21:45.722Z,1.47
2023-05-17T11:25:00.804Z,2.50
2023-05-17T11:28:10.140Z,1.57
2023-05-17T11:31:16.354Z,1.90
2023-05-17T11:34:23.984Z,1.90
2023-05-17T11:37:32.139Z,2.50
2023-05-17T11:40:42.260Z,1.90
2023-05-17T11:43:47.898Z,2.22
2023-05-17T11:46:53.332Z,2.25
2023-05-17T11:50:00.043Z,2.00
2023-05-17T11:53:06.991Z,1.70
2023-05-17T11:56:11.808Z,2.00
2023-05-17T11:59:17.919Z,1.95
2023-05-17T12:02:24.382Z,2.15
2023-05-17T12:05:36.343Z,1.70
2023-05-17T12:08:43.122Z,1.72
2023-05-17T12:11:49.882Z,1.95
2023-05-17T12:14:57.702Z,2.02
2023-05-17T12:18:03.396Z,1.85
2023-05-17T12:21:13.306Z,1.80
2023-05-17T12:24:21.402Z,2.00
2023-05-17T12:27:27.351Z,1.40
2023-05-17T12:30:34.124Z,1.67
2023-05-17T12:33:40.264Z,1.32
2023-05-17T12:36:48.017Z,1.60
2023-05-17T12:39:55.079Z,1.50
2023-05-17T12:43:01.510Z,1.60
2023-05-17T12:46:08.228Z,1.47
2023-05-17T12:49:20.636Z,1.60
2023-05-17T12:52:27.334Z,1.98
2023-05-17T12:55:32.878Z,1.85
2023-05-17T12:58:39.244Z,1.42
2023-05-17T13:01:51.992Z,1.60
2023-05-17T13:04:57.886Z,1.70
2023-05-17T13:08:04.862Z,1.40
2023-05-17T13:11:22.621Z,1.60
2023-05-17T13:14:27.129Z,1.30
2023-05-17T13:17:53.442Z,1.27
2023-05-17T13:20:59.848Z,1.47
2023-05-17T13:24:06.094Z,1.20
2023-05-17T13:27:12.962Z,1.52
2023-05-17T13:30:19.960Z,1.50
2023-05-17T13:33:25.891Z,1.70
2023-05-17T13:36:35.846Z,1.30
2023-05-17T13:39:40.650Z,1.12
2023-05-17T13:42:46.992Z,1.17
2023-05-17T13:45:53.139Z,1.20
2023-05-17T13:48:59.885Z,1.15
2023-05-17T13:52:05.207Z,1.30
2023-05-17T13:55:11.378Z,1.40
2023-05-17T13:58:16.535Z,1.12
2023-05-17T14:01:24.248Z,1.50
2023-05-17T14:04:31.408Z,1.85
2023-05-17T14:07:37.828Z,1.30
2023-05-17T14:10:44.189Z,1.47
2023-05-17T14:13:49.886Z,1.40
2023-05-17T14:16:55.569Z,1.20
2023-05-17T14:20:02.549Z,1.90
2023-05-17T14:23:08.384Z,1.65
2023-05-17T14:26:14.919Z,1.70
2023-05-17T14:29:20.031Z,1.50
2023-05-17T14:32:24.834Z,1.42
2023-05-17T14:35:30.968Z,1.32
2023-05-17T14:38:37.162Z,1.60
2023-05-17T14:41:44.749Z,1.50
2023-05-17T14:44:49.307Z,1.35
2023-05-17T14:47:55.937Z,1.17
2023-05-17T14:51:02.446Z,1.40
2023-05-17T14:54:08.416Z,1.35
2023-05-17T14:57:13.278Z,1.35
2023-05-17T15:00:21.350Z,1.60
2023-05-17T15:03:27.351Z,1.75
2023-05-17T15:06:33.427Z,1.27
2023-05-17T15:09:40.742Z,1.57
2023-05-17T15:12:47.165Z,1.47
2023-05-17T15:15:54.895Z,1.77
2023-05-17T15:19:00.801Z,1.40
2023-05-17T15:22:08.969Z,1.65
2023-05-17T15:25:16.022Z,1.50
2023-05-17T15:28:21.983Z,1.20
2023-05-17T15:31:27.343Z,1.35
2023-05-17T15:34:33.391Z,1.12
2023-05-17T15:37:38.734Z,1.30
2023-05-17T15:40:43.900Z,1.60
2023-05-17T15:43:51.631Z,1.37
2023-05-17T15:46:57.276Z,1.50
2023-05-17T15:50:03.618Z,1.22
2023-05-17T15:53:09.567Z,1.50
2023-05-17T15:56:18.277Z,1.40
2023-05-17T15:59:24.655Z,2.00
2023-05-17T16:02:32.856Z,2.20
2023-05-17T16:05:40.135Z,1.67
2023-05-17T16:08:46.152Z,1.85
2023-05-17T16:11:51.734Z,1.85
2023-05-17T16:14:57.811Z,1.50
2023-05-17T16:18:05.117Z,1.52
2023-05-17T16:21:19.733Z,1.80
2023-05-17T16:24:25.668Z,1.70
2023-05-17T16:27:32.266Z,1.45
2023-05-17T16:30:39.927Z,1.60
2023-05-17T16:33:48.542Z,1.77
2023-05-17T16:36:56.031Z,1.80
2023-05-17T16:40:02.114Z,1.52
2023-05-17T16:43:08.109Z,1.87
2023-05-17T16:46:13.125Z,1.65
2023-05-17T16:49:19.825Z,1.90
2023-05-17T16:52:24.688Z,2.37
2023-05-17T16:55:30.899Z,2.17
2023-05-17T16:58:36.658Z,1.92
2023-05-17T17:01:42.895Z,2.15
2023-05-17T17:04:48.008Z,1.62
2023-05-17T17:07:54.590Z,2.27
2023-05-17T17:11:01.154Z,1.72
2023-05-17T17:14:07.657Z,1.95
2023-05-17T17:17:15.099Z,2.47
2023-05-17T17:20:21.977Z,2.20
2023-05-17T17:23:28.301Z,2.35
2023-05-17T17:26:35.254Z,2.60
2023-05-17T17:29:40.892Z,2.67
2023-05-17T17:32:46.958Z,2.67
2023-05-17T17:35:53.591Z,2.72
2023-05-17T17:38:59.515Z,2.55
2023-05-17T17:42:05.802Z,2.60
2023-05-17T17:45:12.017Z,3.02
2023-05-17T17:48:20.632Z,2.40
2023-05-17T17:51:26.315Z,2.33
2023-05-17T17:54:31.882Z,2.80
2023-05-17T17:57:41.216Z,2.60
2023-05-17T18:00:49.396Z,2.60
2023-05-17T18:03:57.246Z,2.60
2023-05-17T18:07:05.293Z,2.77
2023-05-17T18:10:11.638Z,2.77
2023-05-17T18:13:17.759Z,2.80
2023-05-17T18:16:22.371Z,2.80
2023-05-17T18:19:28.161Z,3.60
2023-05-17T18:22:33.166Z,3.10
2023-05-17T18:25:38.262Z,3.25
2023-05-17T18:28:45.090Z,3.02
2023-05-17T18:31:52.485Z,3.20
2023-05-17T18:34:58.385Z,3.33
2023-05-17T18:38:04.749Z,4.08
2023-05-17T18:41:11.706Z,4.35
2023-05-17T18:44:18.566Z,4.62
2023-05-17T18:47:23.436Z,4.58
2023-05-17T18:50:28.911Z,5.15
2023-05-17T18:53:36.337Z,5.50
2023-05-17T18:56:42.128Z,6.50
2023-05-17T18:59:48.236Z,6.20
2023-05-17T19:02:54.897Z,6.75
2023-05-17T19:06:02.362Z,7.30
2023-05-17T19:09:09.121Z,6.47
2023-05-17T19:12:16.083Z,6.28
2023-05-17T19:15:22.855Z,6.60
2023-05-17T19:18:28.926Z,5.95
2023-05-17T19:21:34.367Z,6.53
2023-05-17T19:24:42.220Z,6.22
2023-05-17T19:27:47.223Z,6.80
2023-05-17T19:30:52.896Z,6.30
2023-05-17T19:33:59.588Z,5.55
2023-05-17T19:37:05.430Z,5.50
2023-05-17T19:40:12.853Z,5.45
2023-05-17T19:43:18.103Z,4.28
2023-05-17T19:46:25.232Z,4.65
2023-05-17T19:49:32.307Z,4.30
2023-05-17T19:52:37.970Z,4.33
2023-05-17T19:55:43.633Z,4.53
2023-05-17T19:58:50.699Z,4.10
2023-05-17T20:01:57.093Z,3.92
2023-05-17T20:05:03.214Z,3.62
2023-05-17T20:08:11.790Z,3.50
2023-05-17T20:11:17.166Z,3.87
2023-05-17T20:14:22.881Z,4.08
2023-05-17T20:17:30.738Z,3.90
2023-05-17T20:20:37.306Z,3.90
2023-05-17T20:23:43.210Z,3.75
2023-05-17T20:26:52.030Z,3.90
2023-05-17T20:29:59.526Z,3.80
2023-05-17T20:33:08.555Z,3.83
2023-05-17T20:36:14.207Z,4.20
2023-05-17T20:39:22.838Z,4.08
2023-05-17T20:42:29.534Z,4.22
2023-05-17T20:45:36.514Z,4.42
2023-05-17T20:48:42.697Z,4.47
2023-05-17T20:51:47.903Z,4.53
2023-05-17T20:54:54.618Z,4.92
2023-05-17T20:58:00.739Z,5.17
2023-05-17T21:01:07.952Z,6.65
2023-05-17T21:04:13.851Z,6.22
2023-05-17T21:07:19.555Z,6.03
2023-05-17T21:10:29.938Z,7.25
2023-05-17T21:13:36.981Z,7.12
2023-05-17T21:16:45.015Z,6.67
2023-05-17T21:19:49.867Z,7.30
2023-05-17T21:22:55.831Z,7.35
2023-05-17T21:26:01.224Z,7.72
2023-05-17T21:29:08.310Z,7.22
2023-05-17T21:32:14.797Z,7.67
2023-05-17T21:35:20.573Z,7.95
2023-05-17T21:38:27.419Z,8.33
2023-05-17T21:41:34.514Z,7.97
2023-05-17T21:44:40.293Z,7.60
2023-05-17T21:47:46.428Z,6.28
2023-05-17T21:50:52.606Z,4.62
2023-05-17T21:53:59.070Z,5.95
2023-05-17T21:57:05.871Z,6.20
2023-05-17T22:00:13.172Z,5.95
2023-05-17T22:03:20.079Z,6.22
2023-05-17T22:06:29.436Z,6.08
2023-05-17T22:09:35.609Z,6.42
2023-05-17T22:12:43.501Z,6.72
2023-05-17T22:15:52.172Z,6.50
2023-05-17T22:19:02.619Z,6.90
2023-05-17T22:22:08.632Z,6.37
2023-05-17T22:25:15.896Z,6.30
2023-05-17T22:28:22.936Z,4.58
2023-05-17T22:31:30.520Z,4.17
2023-05-17T22:34:36.687Z,4.00
2023-05-17T22:37:44.394Z,3.98
2023-05-17T22:40:51.466Z,4.12
2023-05-17T22:44:01.386Z,4.12
2023-05-17T22:47:08.450Z,3.75
2023-05-17T22:50:14.927Z,3.72
2023-05-17T22:53:25.054Z,3.80
2023-05-17T22:56:31.092Z,4.12
2023-05-17T22:59:36.336Z,3.92
2023-05-17T23:02:43.175Z,3.72
2023-05-17T23:05:50.041Z,4.37
2023-05-17T23:08:56.266Z,3.77
2023-05-17T23:12:03.286Z,4.20
2023-05-17T23:15:09.001Z,4.72
2023-05-17T23:18:17.037Z,4.15
2023-05-17T23:21:24.523Z,4.30
2023-05-17T23:24:32.948Z,4.87
2023-05-17T23:27:38.875Z,4.20
2023-05-17T23:30:46.336Z,4.97
2023-05-17T23:33:52.356Z,4.60
2023-05-17T23:36:58.926Z,4.30
2023-05-17T23:40:09.285Z,4.50
2023-05-17T23:43:17.576Z,4.55
2023-05-17T23:46:25.947Z,4.58
2023-05-17T23:49:32.702Z,5.12
2023-05-17T23:52:39.319Z,5.50
2023-05-17T23:55:45.910Z,5.35
2023-05-17T23:58:52.636Z,5.33
